Time;durP1;ratioP1;P1;durP2;ratioP2;P2;SDS_P1;SDS_P2;PMS_P1;PMS_P2;Temp;Humidity;BMP_temperature;BMP_pressure;BME280_temperature;BME280_humidity;BME280_pressure;Samples;Min_cycle;Max_cycle;Signal;HPM_P1;HPM_P2
2022/08/25 00:01:19;;;;;;;10.10;6.13;;;19.90;99.90;;;;;;5072083;28;20055;-81
2022/08/25 00:03:45;;;;;;;9.82;6.00;;;19.90;99.90;;;;;;5055261;28;20083;-79
2022/08/25 00:06:12;;;;;;;7.93;5.07;;;19.90;99.90;;;;;;5072149;28;20079;-78
2022/08/25 00:08:38;;;;;;;10.90;5.82;;;19.90;99.90;;;;;;5071927;28;20059;-79
2022/08/25 00:11:06;;;;;;;10.88;5.68;;;19.80;99.90;;;;;;5071837;28;20040;-79
2022/08/25 00:13:32;;;;;;;7.03;5.55;;;19.80;99.90;;;;;;5072094;28;20133;-79
2022/08/25 00:15:58;;;;;;;8.52;5.53;;;19.80;99.90;;;;;;5071809;28;20078;-79
2022/08/25 00:18:24;;;;;;;8.30;5.47;;;19.70;99.90;;;;;;5071752;28;20032;-79
2022/08/25 00:20:50;;;;;;;8.80;5.45;;;19.70;99.90;;;;;;5071572;28;20384;-79
2022/08/25 00:23:17;;;;;;;11.63;5.72;;;19.70;99.90;;;;;;5071700;28;20381;-79
2022/08/25 00:25:42;;;;;;;7.43;5.22;;;19.70;99.90;;;;;;5071776;28;20373;-79
2022/08/25 00:28:09;;;;;;;8.82;5.10;;;19.70;99.90;;;;;;5071391;28;20056;-79
2022/08/25 00:30:35;;;;;;;6.20;4.97;;;19.60;99.90;;;;;;5071703;28;20051;-78
2022/08/25 00:33:03;;;;;;;7.78;4.63;;;19.60;99.90;;;;;;5071584;28;20041;-80
2022/08/25 00:35:29;;;;;;;7.57;5.00;;;19.60;99.90;;;;;;5071554;28;20086;-78
2022/08/25 00:37:55;;;;;;;6.70;4.20;;;19.60;99.90;;;;;;5071312;28;20075;-79
2022/08/25 00:40:22;;;;;;;11.60;5.18;;;19.60;99.90;;;;;;5071292;28;20123;-79
2022/08/25 00:42:48;;;;;;;6.00;4.40;;;19.60;99.90;;;;;;5071298;28;20067;-79
2022/08/25 00:45:13;;;;;;;5.82;4.65;;;19.60;99.90;;;;;;5071153;28;20484;-80
2022/08/25 00:47:40;;;;;;;7.72;4.35;;;19.60;99.90;;;;;;5071072;28;20473;-79
2022/08/25 00:50:08;;;;;;;8.02;4.20;;;19.60;99.90;;;;;;5070994;28;20044;-81
2022/08/25 00:52:42;;;;;;;8.23;4.03;;;19.50;99.90;;;;;;5070903;28;20503;-79
2022/08/25 00:55:16;;;;;;;7.45;4.82;;;19.60;99.90;;;;;;5070991;28;20534;-78
2022/08/25 00:57:47;;;;;;;6.70;4.03;;;19.50;99.90;;;;;;5070987;28;20048;-79
2022/08/25 01:00:24;;;;;;;9.55;4.07;;;19.50;99.90;;;;;;5070941;28;20377;-79
2022/08/25 01:02:49;;;;;;;4.32;3.85;;;19.50;99.90;;;;;;5071083;28;20114;-79
2022/08/25 01:05:18;;;;;;;8.15;3.88;;;19.50;99.90;;;;;;5070781;28;20072;-79
2022/08/25 01:07:44;;;;;;;6.55;3.63;;;19.50;99.90;;;;;;5053999;28;20040;-78
2022/08/25 01:10:12;;;;;;;5.20;3.67;;;19.50;99.90;;;;;;5070615;28;20507;-78
2022/08/25 01:12:38;;;;;;;6.18;3.67;;;19.50;99.90;;;;;;5070538;28;20032;-78
2022/08/25 01:15:10;;;;;;;6.05;3.58;;;19.60;99.90;;;;;;5070615;28;20116;-78
2022/08/25 01:17:45;;;;;;;7.20;3.65;;;19.50;99.90;;;;;;5071983;28;20411;-78
2022/08/25 01:20:12;;;;;;;4.03;3.70;;;19.60;99.90;;;;;;5069694;28;20048;-78
2022/08/25 01:22:38;;;;;;;4.50;4.10;;;19.50;99.90;;;;;;5069446;28;20094;-78
2022/08/25 01:25:15;;;;;;;5.10;3.85;;;19.60;99.90;;;;;;5070325;28;20441;-79
2022/08/25 01:27:41;;;;;;;6.07;3.80;;;19.60;99.90;;;;;;5069938;28;20128;-79
2022/08/25 01:30:07;;;;;;;5.00;3.42;;;19.50;99.90;;;;;;5069659;28;20120;-79
2022/08/25 01:32:34;;;;;;;4.68;3.40;;;19.50;99.90;;;;;;5070080;28;20502;-78
2022/08/25 01:35:00;;;;;;;7.43;3.45;;;19.50;99.90;;;;;;5069902;28;20037;-78
2022/08/25 01:37:25;;;;;;;5.10;3.75;;;19.50;99.90;;;;;;5069969;28;20557;-78
2022/08/25 01:39:51;;;;;;;9.45;3.50;;;19.50;99.90;;;;;;5069732;28;20047;-79
2022/08/25 01:42:27;;;;;;;7.60;3.40;;;19.40;99.90;;;;;;5070786;28;20048;-78
2022/08/25 01:44:53;;;;;;;4.68;3.17;;;19.50;99.90;;;;;;5053322;28;20063;-79
2022/08/25 01:47:19;;;;;;;4.93;3.35;;;19.40;99.90;;;;;;5069709;28;20079;-78
2022/08/25 01:49:45;;;;;;;3.95;3.10;;;19.30;99.90;;;;;;5069341;28;20035;-79
2022/08/25 01:52:31;;;;;;;6.03;3.38;;;19.40;99.90;;;;;;5070908;28;20036;-78
2022/08/25 01:54:56;;;;;;;6.13;3.33;;;19.40;99.90;;;;;;5069584;28;20044;-78
2022/08/25 01:57:22;;;;;;;5.57;3.38;;;19.40;99.90;;;;;;5069821;28;20067;-78
2022/08/25 01:59:48;;;;;;;6.65;4.18;;;19.40;99.90;;;;;;5069476;28;20518;-78
2022/08/25 02:02:14;;;;;;;7.57;3.40;;;19.50;99.90;;;;;;5070794;28;20044;-78
2022/08/25 02:04:39;;;;;;;6.05;3.45;;;19.50;99.90;;;;;;5069481;28;20043;-78
2022/08/25 02:07:07;;;;;;;6.97;3.50;;;19.40;99.90;;;;;;5069383;28;20890;-78
2022/08/25 02:09:33;;;;;;;7.68;4.13;;;19.50;99.90;;;;;;5052385;28;20040;-78
2022/08/25 02:11:59;;;;;;;4.70;3.10;;;19.40;99.90;;;;;;5070577;28;20540;-78
2022/08/25 02:14:25;;;;;;;5.32;3.50;;;19.40;99.90;;;;;;5069520;28;20037;-78
2022/08/25 02:16:52;;;;;;;5.35;3.00;;;19.40;99.90;;;;;;5069376;28;20048;-78
2022/08/25 02:19:19;;;;;;;7.75;3.65;;;19.40;99.90;;;;;;5070525;28;20047;-80
2022/08/25 02:21:45;;;;;;;7.45;3.03;;;19.40;99.90;;;;;;5069113;28;20036;-78
2022/08/25 02:24:11;;;;;;;4.88;3.58;;;19.40;99.90;;;;;;5069407;28;20506;-79
2022/08/25 02:26:37;;;;;;;5.65;3.40;;;19.40;99.90;;;;;;5069193;28;20040;-78
2022/08/25 02:29:06;;;;;;;7.97;3.70;;;19.30;99.90;;;;;;5069574;28;20040;-78
2022/08/25 02:31:32;;;;;;;9.23;3.53;;;19.30;99.90;;;;;;5069193;28;20048;-78
2022/08/25 02:33:58;;;;;;;8.55;3.00;;;19.30;99.90;;;;;;5071687;28;20043;-78
2022/08/25 02:36:23;;;;;;;7.40;3.15;;;19.20;99.90;;;;;;5073183;28;20048;-78
2022/08/25 02:38:49;;;;;;;4.78;3.30;;;19.20;99.90;;;;;;5072892;28;20119;-78
2022/08/25 02:41:19;;;;;;;5.32;3.13;;;19.20;99.90;;;;;;5072944;28;20407;-78
2022/08/25 02:43:46;;;;;;;5.15;3.55;;;19.20;99.90;;;;;;5072776;28;20086;-78
2022/08/25 02:46:12;;;;;;;11.65;3.63;;;19.20;99.90;;;;;;5072736;28;20126;-78
2022/08/25 02:48:39;;;;;;;6.40;3.33;;;19.20;99.90;;;;;;5073006;28;20076;-78
2022/08/25 02:51:06;;;;;;;4.78;3.33;;;19.10;99.90;;;;;;5072450;28;20491;-78
2022/08/25 02:53:32;;;;;;;5.70;3.30;;;19.10;99.90;;;;;;5072515;28;20545;-78
2022/08/25 02:55:58;;;;;;;7.93;3.60;;;19.10;99.90;;;;;;5072962;28;20044;-78
2022/08/25 02:58:24;;;;;;;5.15;3.50;;;19.10;99.90;;;;;;5072691;28;20036;-78
2022/08/25 03:00:51;;;;;;;4.40;3.20;;;19.10;99.90;;;;;;5072278;28;20051;-78
2022/08/25 03:03:17;;;;;;;4.85;3.35;;;19.10;99.90;;;;;;5074874;28;20115;-79
2022/08/25 03:05:42;;;;;;;7.20;3.50;;;19.10;99.90;;;;;;5076458;28;20063;-79
2022/08/25 03:08:09;;;;;;;5.85;2.97;;;19.10;99.90;;;;;;5074145;28;20044;-79
2022/08/25 03:10:35;;;;;;;3.67;3.17;;;19.10;99.90;;;;;;5073973;28;20040;-79
2022/08/25 03:13:01;;;;;;;4.88;3.00;;;19.00;99.90;;;;;;5074286;28;20048;-79
2022/08/25 03:15:27;;;;;;;6.38;3.45;;;19.10;99.90;;;;;;5074562;28;20383;-79
2022/08/25 03:17:54;;;;;;;5.05;3.33;;;19.00;99.90;;;;;;5074857;28;20415;-79
2022/08/25 03:20:22;;;;;;;6.75;3.45;;;19.00;99.90;;;;;;5073957;28;20070;-79
2022/08/25 03:22:47;;;;;;;5.85;3.40;;;19.00;99.90;;;;;;5074133;28;20143;-79
2022/08/25 03:27:58;;;;;;;4.65;3.05;;;19.00;99.90;;;;;;5074053;28;20048;-79
2022/08/25 03:30:25;;;;;;;6.05;3.40;;;18.90;99.90;;;;;;5073530;28;20032;-79
2022/08/25 03:32:50;;;;;;;4.90;3.15;;;18.90;99.90;;;;;;5069531;28;20112;-78
2022/08/25 03:35:16;;;;;;;8.20;3.00;;;18.90;99.90;;;;;;5097469;28;20037;-78
2022/08/25 03:37:42;;;;;;;7.45;3.25;;;18.90;99.90;;;;;;5097273;28;20036;-78
2022/08/25 03:40:10;;;;;;;6.10;3.10;;;18.90;99.90;;;;;;5096967;28;20090;-78
2022/08/25 03:42:39;;;;;;;6.43;3.72;;;18.90;99.90;;;;;;5070732;28;20072;-79
2022/08/25 03:45:06;;;;;;;8.50;3.55;;;18.90;99.90;;;;;;5076772;28;20032;-79
2022/08/25 03:47:33;;;;;;;5.80;3.75;;;18.80;99.90;;;;;;5074700;28;20056;-79
2022/08/25 03:49:58;;;;;;;5.53;3.63;;;18.80;99.90;;;;;;5058175;28;20041;-78
2022/08/25 03:52:24;;;;;;;3.50;2.92;;;18.70;99.90;;;;;;5075804;28;20529;-79
2022/08/25 03:54:50;;;;;;;6.18;3.30;;;18.80;99.90;;;;;;5075814;28;20044;-79
2022/08/25 03:57:15;;;;;;;3.78;3.33;;;18.70;99.90;;;;;;5075049;28;20080;-79
2022/08/25 03:59:41;;;;;;;6.57;3.53;;;18.60;99.90;;;;;;5075295;28;20049;-79
2022/08/25 04:02:07;;;;;;;5.78;3.67;;;18.60;99.90;;;;;;5074939;28;20052;-79
2022/08/25 04:04:33;;;;;;;6.30;3.10;;;18.60;99.90;;;;;;5075108;28;20553;-79
2022/08/25 04:06:59;;;;;;;8.30;3.65;;;18.50;99.90;;;;;;5074223;28;20076;-79
2022/08/25 04:09:25;;;;;;;7.75;3.80;;;18.50;99.90;;;;;;5074651;28;20079;-79
2022/08/25 04:11:51;;;;;;;6.88;3.75;;;18.40;99.90;;;;;;5074733;28;20040;-79
2022/08/25 04:14:17;;;;;;;7.43;3.78;;;18.40;99.90;;;;;;5075967;28;20064;-79
2022/08/25 04:16:44;;;;;;;6.07;3.50;;;18.40;99.90;;;;;;5074858;28;20045;-79
2022/08/25 04:19:10;;;;;;;7.85;3.97;;;18.40;99.90;;;;;;5074723;28;20048;-79
2022/08/25 04:21:37;;;;;;;9.98;3.75;;;18.40;99.90;;;;;;5074732;28;20082;-79
2022/08/25 04:24:05;;;;;;;4.35;3.42;;;18.30;99.90;;;;;;5073977;28;20406;-79
2022/08/25 04:26:38;;;;;;;6.75;3.72;;;18.30;99.90;;;;;;5074486;28;20091;-79
2022/08/25 04:29:05;;;;;;;5.18;3.30;;;18.20;99.90;;;;;;5073639;28;20040;-79
2022/08/25 04:31:32;;;;;;;10.88;4.45;;;18.30;99.90;;;;;;5072973;28;20444;-79
2022/08/25 04:34:02;;;;;;;9.98;5.15;;;18.20;99.90;;;;;;5074012;28;20119;-79
2022/08/25 04:36:28;;;;;;;7.57;3.42;;;18.20;99.90;;;;;;5075290;28;20128;-79
2022/08/25 04:38:53;;;;;;;7.82;3.85;;;18.20;99.90;;;;;;5075578;28;20082;-79
2022/08/25 04:41:22;;;;;;;6.93;3.28;;;18.20;99.90;;;;;;5079978;28;20062;-79
2022/08/25 04:43:48;;;;;;;5.90;3.60;;;18.20;99.90;;;;;;5097732;28;20048;-78
2022/08/25 04:46:23;;;;;;;3.90;3.47;;;18.10;99.90;;;;;;5097638;28;20063;-78
2022/08/25 04:48:51;;;;;;;9.35;4.38;;;18.20;99.90;;;;;;5085066;28;20044;-79
2022/08/25 04:51:22;;;;;;;9.07;4.30;;;18.20;99.90;;;;;;5054622;28;20105;-79
2022/08/25 04:53:48;;;;;;;3.85;3.30;;;18.20;99.90;;;;;;5071731;28;20036;-79
2022/08/25 04:56:16;;;;;;;10.23;4.40;;;18.10;99.90;;;;;;5070699;28;20055;-79
2022/08/25 04:58:45;;;;;;;7.20;3.80;;;18.10;99.90;;;;;;5071422;28;20052;-79
2022/08/25 05:01:17;;;;;;;6.82;3.47;;;18.10;99.90;;;;;;5074640;28;20050;-79
2022/08/25 05:03:44;;;;;;;;;;;18.10;99.90;;;;;;5093190;28;20068;-78
2022/08/25 05:06:10;;;;;;;5.47;3.05;;;18.20;99.90;;;;;;5094649;28;19912;-78
2022/08/25 05:08:36;;;;;;;5.25;3.35;;;18.20;99.90;;;;;;5096111;28;20044;-78
2022/08/25 05:11:11;;;;;;;12.80;5.70;;;18.30;99.90;;;;;;5065494;28;20059;-79
2022/08/25 05:13:38;;;;;;;7.50;3.83;;;18.40;99.90;;;;;;5072046;28;20044;-79
2022/08/25 05:16:04;;;;;;;5.35;3.15;;;18.50;99.90;;;;;;5071282;28;20122;-80
2022/08/25 05:18:31;;;;;;;7.65;3.30;;;18.50;99.90;;;;;;5072085;28;20556;-79
2022/08/25 05:21:00;;;;;;;6.05;3.28;;;18.60;99.90;;;;;;5070132;28;20044;-79
2022/08/25 05:23:25;;;;;;;5.63;3.10;;;18.70;99.90;;;;;;5053801;28;20488;-79
2022/08/25 05:25:52;;;;;;;5.97;4.38;;;18.80;99.90;;;;;;5070353;28;20041;-80
2022/08/25 05:28:20;;;;;;;10.35;6.45;;;18.80;99.90;;;;;;5072121;28;20052;-80
2022/08/25 05:30:48;;;;;;;13.23;7.97;;;18.80;99.90;;;;;;5069766;28;20090;-81
2022/08/25 05:33:15;;;;;;;12.98;8.02;;;18.80;99.90;;;;;;5070415;28;20078;-80
2022/08/25 05:35:41;;;;;;;8.32;4.22;;;18.80;99.90;;;;;;5070131;28;20032;-82
2022/08/25 05:38:07;;;;;;;7.07;4.13;;;18.80;99.90;;;;;;5069887;28;20044;-82
2022/08/25 05:40:33;;;;;;;10.88;3.75;;;18.90;99.90;;;;;;5070595;28;20131;-81
2022/08/25 05:42:58;;;;;;;6.03;3.75;;;18.90;99.90;;;;;;5072094;28;20098;-80
2022/08/25 05:45:24;;;;;;;6.80;3.88;;;19.00;99.90;;;;;;5070951;28;20533;-81
2022/08/25 05:47:50;;;;;;;9.85;3.88;;;19.00;99.90;;;;;;5069846;28;20080;-81
2022/08/25 05:50:16;;;;;;;5.88;3.30;;;19.00;99.90;;;;;;5069534;28;20088;-80
2022/08/25 05:52:43;;;;;;;5.05;3.20;;;19.10;99.90;;;;;;5068941;28;20029;-81
2022/08/25 05:55:09;;;;;;;5.65;3.38;;;19.10;99.90;;;;;;5069682;28;20044;-80
2022/08/25 05:57:35;;;;;;;6.35;3.42;;;19.20;99.90;;;;;;5052755;28;20167;-81
2022/08/25 06:00:03;;;;;;;6.93;3.45;;;19.30;99.90;;;;;;5069549;28;20123;-81
2022/08/25 06:02:42;;;;;;;7.65;3.42;;;19.40;99.90;;;;;;5052926;28;20083;-80
2022/08/25 06:05:16;;;;;;;5.22;3.60;;;19.60;99.90;;;;;;5056691;28;20044;-81
2022/08/25 06:07:42;;;;;;;8.70;3.80;;;19.70;99.90;;;;;;5071044;28;20063;-81
2022/08/25 06:10:12;;;;;;;6.65;3.78;;;19.70;99.90;;;;;;5057346;28;20080;-80
2022/08/25 06:12:39;;;;;;;7.90;3.50;;;19.70;99.90;;;;;;5074309;28;20527;-81
2022/08/25 06:15:06;;;;;;;6.93;3.83;;;19.70;99.90;;;;;;5075115;28;20056;-80
2022/08/25 06:17:33;;;;;;;6.00;3.10;;;19.70;99.90;;;;;;5073963;28;20040;-79
2022/08/25 06:19:59;;;;;;;5.45;3.28;;;19.70;99.90;;;;;;5073612;28;20063;-80
2022/08/25 06:22:25;;;;;;;8.25;3.80;;;19.70;99.90;;;;;;5074028;28;20044;-80
2022/08/25 06:24:51;;;;;;;8.45;3.45;;;19.80;99.90;;;;;;5074058;28;20048;-81
2022/08/25 06:27:17;;;;;;;7.35;3.50;;;19.80;99.90;;;;;;5073400;28;20041;-81
2022/08/25 06:29:42;;;;;;;6.88;4.20;;;19.90;99.90;;;;;;5074315;28;20115;-81
2022/08/25 06:32:08;;;;;;;11.15;3.85;;;19.80;99.90;;;;;;5073254;28;20464;-81
2022/08/25 06:34:34;;;;;;;7.88;4.20;;;19.90;99.90;;;;;;5074141;28;20055;-80
2022/08/25 06:37:00;;;;;;;4.85;3.47;;;19.90;99.90;;;;;;5074056;28;20123;-81
2022/08/25 06:39:25;;;;;;;5.05;3.20;;;20.00;99.90;;;;;;5073554;28;20044;-80
2022/08/25 06:41:52;;;;;;;6.03;3.45;;;20.10;99.90;;;;;;5073649;28;20558;-81
2022/08/25 06:44:18;;;;;;;5.88;3.80;;;20.10;99.90;;;;;;5073669;28;20048;-81
2022/08/25 06:46:44;;;;;;;7.10;3.65;;;20.20;99.90;;;;;;5073290;28;20063;-81
2022/08/25 06:49:10;;;;;;;6.40;3.67;;;20.40;99.90;;;;;;5073721;28;20040;-81
2022/08/25 06:51:35;;;;;;;4.68;3.10;;;20.60;99.90;;;;;;5073458;28;20564;-80
2022/08/25 06:54:02;;;;;;;9.52;3.33;;;20.90;99.90;;;;;;5057708;28;20123;-79
2022/08/25 06:56:28;;;;;;;8.60;3.47;;;21.10;99.90;;;;;;5074298;28;20080;-78
2022/08/25 06:58:53;;;;;;;5.65;3.25;;;21.30;99.90;;;;;;5073774;28;20051;-78
2022/08/25 07:01:22;;;;;;;5.03;3.13;;;21.60;99.90;;;;;;5073850;28;20474;-81
2022/08/25 07:03:53;;;;;;;8.68;3.40;;;21.80;99.90;;;;;;5057708;28;20459;-80
2022/08/25 07:06:19;;;;;;;9.43;3.47;;;21.90;99.90;;;;;;5073711;28;20063;-81
2022/08/25 07:08:46;;;;;;;9.57;3.47;;;21.90;99.90;;;;;;5057166;28;20487;-81
2022/08/25 07:11:13;;;;;;;3.78;3.28;;;22.00;99.90;;;;;;5056399;28;20520;-81
2022/08/25 07:13:39;;;;;;;6.30;3.63;;;22.10;99.90;;;;;;5073784;28;20086;-81
2022/08/25 07:16:05;;;;;;;8.82;3.35;;;22.40;99.90;;;;;;5071227;28;20033;-81
2022/08/25 07:18:31;;;;;;;5.97;3.33;;;22.90;99.90;;;;;;5071304;28;20036;-81
2022/08/25 07:20:57;;;;;;;5.00;2.90;;;23.50;99.90;;;;;;5070755;28;20024;-81
2022/08/25 07:23:25;;;;;;;6.80;3.10;;;24.30;99.90;;;;;;5072464;28;20059;-82
2022/08/25 07:25:51;;;;;;;5.88;3.33;;;25.00;99.90;;;;;;5065272;28;20036;-82
2022/08/25 07:28:17;;;;;;;4.60;3.55;;;25.70;99.90;;;;;;5092413;28;20079;-80
2022/08/25 07:30:44;;;;;;;11.68;3.90;;;26.20;99.90;;;;;;5092497;28;20047;-81
2022/08/25 07:33:10;;;;;;;8.05;3.20;;;26.70;99.90;;;;;;5092653;28;20040;-81
2022/08/25 07:35:36;;;;;;;5.75;3.08;;;27.00;99.90;;;;;;5095521;28;20043;-81
2022/08/25 07:38:02;;;;;;;8.15;3.08;;;27.50;99.90;;;;;;5094107;28;20091;-81
2022/08/25 07:40:34;;;;;;;4.97;2.97;;;27.80;99.90;;;;;;5094031;28;20099;-81
2022/08/25 07:43:04;;;;;;;6.95;3.30;;;28.00;99.90;;;;;;5093714;28;20043;-81
2022/08/25 07:45:33;;;;;;;6.75;2.90;;;28.30;98.90;;;;;;5094009;28;20044;-82
2022/08/25 07:48:10;;;;;;;5.05;2.85;;;28.50;96.90;;;;;;5093562;28;20070;-80
2022/08/25 07:50:41;;;;;;;4.32;3.10;;;28.70;97.80;;;;;;5092979;28;20095;-82
2022/08/25 07:53:07;;;;;;;7.18;3.05;;;29.00;97.30;;;;;;5076674;28;20127;-82
2022/08/25 07:55:35;;;;;;;4.82;2.78;;;29.30;96.70;;;;;;5094162;28;20054;-80
2022/08/25 07:58:02;;;;;;;6.72;2.75;;;29.50;95.70;;;;;;5076203;28;20040;-81
2022/08/25 08:00:30;;;;;;;5.70;2.97;;;29.70;94.00;;;;;;5093076;28;20452;-79
2022/08/25 08:02:56;;;;;;;5.53;2.42;;;29.80;92.60;;;;;;5094021;28;20475;-78
2022/08/25 08:05:23;;;;;;;6.95;3.03;;;30.00;91.40;;;;;;5093303;28;20081;-78
2022/08/25 08:07:49;;;;;;;5.22;2.50;;;30.00;89.40;;;;;;5091498;28;20044;-78
2022/08/25 08:10:15;;;;;;;6.35;2.67;;;30.30;87.60;;;;;;5091425;28;20395;-78
2022/08/25 08:12:41;;;;;;;4.75;2.72;;;30.40;85.60;;;;;;5092607;28;20115;-78
2022/08/25 08:15:08;;;;;;;7.32;2.60;;;30.60;82.50;;;;;;5091364;28;20067;-78
2022/08/25 08:17:34;;;;;;;6.57;2.47;;;30.70;81.20;;;;;;5091601;28;20062;-78
2022/08/25 08:20:00;;;;;;;3.28;2.50;;;30.80;79.80;;;;;;5091056;28;20036;-78
2022/08/25 08:22:28;;;;;;;4.53;2.10;;;30.90;78.10;;;;;;5091399;28;20044;-78
2022/08/25 08:24:54;;;;;;;4.80;2.40;;;31.00;77.50;;;;;;5091125;28;20043;-78
2022/08/25 08:27:20;;;;;;;7.63;2.97;;;31.10;77.30;;;;;;5074162;28;20055;-78
2022/08/25 08:29:46;;;;;;;6.97;3.20;;;31.10;75.60;;;;;;5090844;28;20055;-78
2022/08/25 08:32:12;;;;;;;7.18;2.63;;;30.90;75.20;;;;;;5091356;28;20070;-78
2022/08/25 08:34:41;;;;;;;7.70;3.15;;;30.90;74.10;;;;;;5091106;28;20036;-78
2022/08/25 08:37:07;;;;;;;2.95;2.45;;;30.90;73.40;;;;;;5091012;28;20044;-79
2022/08/25 08:39:33;;;;;;;7.00;2.17;;;30.90;73.80;;;;;;5073947;28;20077;-79
2022/08/25 08:42:25;;;;;;;6.47;2.00;;;31.10;73.50;;;;;;5090649;28;20437;-78
2022/08/25 08:45:03;;;;;;;8.32;2.80;;;31.30;72.40;;;;;;5092172;28;20407;-78
2022/08/25 08:47:38;;;;;;;5.68;2.60;;;31.30;73.30;;;;;;5090780;28;20040;-78
2022/08/25 08:50:21;;;;;;;5.68;2.13;;;31.40;68.60;;;;;;5090382;28;20093;-78
2022/08/25 08:52:55;;;;;;;8.13;2.55;;;31.50;71.50;;;;;;5090983;28;20501;-78
2022/08/25 08:55:23;;;;;;;8.77;2.50;;;31.60;70.40;;;;;;5090644;28;20051;-78
2022/08/25 08:57:51;;;;;;;6.88;3.00;;;31.70;69.90;;;;;;5090867;28;20043;-78
2022/08/25 09:00:17;;;;;;;4.75;2.80;;;31.80;69.30;;;;;;5090290;28;20090;-79
2022/08/25 09:03:03;;;;;;;7.63;2.55;;;32.00;69.30;;;;;;5091776;28;20064;-78
2022/08/25 09:05:32;;;;;;;5.82;2.33;;;32.00;67.80;;;;;;5090403;28;20036;-79
2022/08/25 09:08:11;;;;;;;4.65;2.60;;;31.90;68.40;;;;;;5090193;28;20048;-78
2022/08/25 09:11:13;;;;;;;5.65;2.28;;;31.80;67.30;;;;;;5090145;28;20074;-78
2022/08/25 09:13:59;;;;;;;4.60;2.10;;;31.70;66.20;;;;;;5090313;28;20044;-78
2022/08/25 09:16:55;;;;;;;4.45;2.60;;;31.70;66.60;;;;;;5091702;28;20085;-79
2022/08/25 09:19:21;;;;;;;5.40;2.25;;;31.80;64.80;;;;;;5109391;28;20069;-81
2022/08/25 09:22:10;;;;;;;3.30;2.28;;;31.90;67.40;;;;;;5113850;28;20068;-80
2022/08/25 09:25:06;;;;;;;3.33;2.22;;;32.00;63.20;;;;;;5113251;28;20056;-80
2022/08/25 09:27:56;;;;;;;4.63;2.50;;;32.20;64.50;;;;;;5073434;28;20054;-78
2022/08/25 09:30:22;;;;;;;4.05;2.40;;;32.20;64.30;;;;;;5090123;28;20065;-79
2022/08/25 09:33:00;;;;;;;3.60;2.33;;;32.30;64.30;;;;;;5090976;28;20035;-80
2022/08/25 09:35:31;;;;;;;3.63;2.33;;;32.30;63.50;;;;;;5091001;28;20059;-79
2022/08/25 09:37:58;;;;;;;;;;;32.30;63.10;;;;;;5090871;28;20055;-80
2022/08/25 09:40:25;;;;;;;4.25;2.25;;;32.20;63.60;;;;;;5090184;28;20011;-81
2022/08/25 09:42:55;;;;;;;4.93;2.53;;;32.40;63.50;;;;;;5089606;28;20071;-80
2022/08/25 09:45:30;;;;;;;6.10;2.38;;;32.60;62.00;;;;;;5090098;28;20483;-80
2022/08/25 09:47:56;;;;;;;3.30;2.25;;;32.70;60.10;;;;;;5073102;28;20047;-79
2022/08/25 09:50:22;;;;;;;6.00;2.42;;;32.90;60.40;;;;;;5089555;28;20032;-80
2022/08/25 09:52:47;;;;;;;5.72;2.20;;;33.10;59.40;;;;;;5090885;28;20043;-80
2022/08/25 09:55:13;;;;;;;6.68;2.47;;;33.10;59.00;;;;;;5090291;28;20036;-80
2022/08/25 09:57:41;;;;;;;3.40;2.35;;;32.90;59.40;;;;;;5092010;28;20050;-81
2022/08/25 10:00:28;;;;;;;4.53;2.22;;;32.90;58.70;;;;;;5073788;28;20354;-80
2022/08/25 10:03:06;;;;;;;4.72;2.30;;;32.80;54.80;;;;;;5090659;28;20402;-80
2022/08/25 10:05:34;;;;;;;3.70;2.28;;;32.70;57.70;;;;;;5090660;28;20074;-80
2022/08/25 10:08:08;;;;;;;3.03;2.42;;;32.70;58.20;;;;;;5090421;28;20405;-80
2022/08/25 10:10:39;;;;;;;9.73;2.13;;;32.80;59.10;;;;;;5072876;28;20048;-80
2022/08/25 10:13:17;;;;;;;5.18;2.45;;;32.90;57.50;;;;;;5091329;28;20123;-80
2022/08/25 10:15:44;;;;;;;3.25;2.28;;;33.00;56.10;;;;;;5090185;28;20498;-80
2022/08/25 10:18:27;;;;;;;5.85;2.35;;;33.00;56.70;;;;;;5090024;28;20048;-80
2022/08/25 10:21:04;;;;;;;6.68;2.50;;;32.90;55.20;;;;;;5073092;28;20051;-80
2022/08/25 10:23:33;;;;;;;7.13;2.67;;;32.90;57.20;;;;;;5089932;28;20044;-78
2022/08/25 10:26:10;;;;;;;5.95;2.00;;;32.80;56.40;;;;;;5089600;28;20084;-78
2022/08/25 10:28:58;;;;;;;4.05;2.40;;;32.70;55.70;;;;;;5089973;28;20462;-78
2022/08/25 10:31:43;;;;;;;4.85;2.13;;;32.50;55.70;;;;;;5091312;28;20082;-78
2022/08/25 10:34:30;;;;;;;6.70;2.50;;;32.30;55.90;;;;;;5090069;28;20090;-80
2022/08/25 10:37:12;;;;;;;4.15;2.17;;;32.20;55.30;;;;;;5090365;28;20040;-81
2022/08/25 10:40:04;;;;;;;4.03;2.40;;;32.10;55.70;;;;;;5090044;28;20048;-79
2022/08/25 10:42:42;;;;;;;4.88;2.38;;;32.00;55.30;;;;;;5090142;28;20047;-80
2022/08/25 10:45:41;;;;;;;5.13;2.40;;;32.00;55.70;;;;;;5073560;28;20036;-81
2022/08/25 10:48:08;;;;;;;2.63;2.03;;;32.00;55.40;;;;;;5091290;28;20105;-80
2022/08/25 10:50:51;;;;;;;5.93;2.90;;;32.00;55.10;;;;;;5108737;28;20032;-76
2022/08/25 10:53:22;;;;;;;4.22;2.20;;;32.00;55.30;;;;;;5114877;28;20048;-77
2022/08/25 10:55:54;;;;;;;3.90;2.30;;;32.10;54.50;;;;;;5118629;28;20040;-76
2022/08/25 10:58:38;;;;;;;6.28;2.20;;;32.20;55.00;;;;;;5119502;28;20125;-76
2022/08/25 11:01:18;;;;;;;5.25;2.50;;;32.20;55.50;;;;;;5091836;28;20640;-81
2022/08/25 11:03:59;;;;;;;3.87;2.10;;;32.20;53.90;;;;;;5048721;28;20028;-81
2022/08/25 11:06:46;;;;;;;4.95;2.40;;;32.10;54.80;;;;;;5056076;28;20082;-80
2022/08/25 11:09:18;;;;;;;4.45;2.38;;;32.10;54.40;;;;;;5072747;28;20086;-81
2022/08/25 11:11:52;;;;;;;4.05;2.45;;;32.10;54.30;;;;;;5055603;28;21769;-82
2022/08/25 11:14:38;;;;;;;5.03;2.00;;;32.10;54.30;;;;;;5072530;28;20037;-82
2022/08/25 11:17:23;;;;;;;4.20;2.20;;;32.20;53.00;;;;;;5072779;28;20429;-81
2022/08/25 11:19:54;;;;;;;5.45;2.20;;;32.20;52.60;;;;;;5073390;28;20032;-81
2022/08/25 11:22:22;;;;;;;;;;;32.20;52.70;;;;;;5076130;28;20040;-82
2022/08/25 11:24:51;;;;;;;3.28;2.20;;;32.20;50.60;;;;;;5072573;28;19923;-81
2022/08/25 11:27:35;;;;;;;4.63;1.70;;;32.20;53.00;;;;;;5055552;28;20044;-82
2022/08/25 11:30:09;;;;;;;5.78;1.88;;;32.20;51.20;;;;;;5071959;28;20381;-82
2022/08/25 11:32:37;;;;;;;3.38;1.83;;;32.30;51.10;;;;;;5073598;28;20036;-82
2022/08/25 11:35:06;;;;;;;6.90;1.83;;;32.20;50.80;;;;;;5073486;28;20037;-82
2022/08/25 11:37:32;;;;;;;2.40;1.88;;;32.20;50.40;;;;;;5072275;28;20045;-82
2022/08/25 11:40:11;;;;;;;3.47;1.95;;;32.20;50.60;;;;;;5072060;28;20078;-82
2022/08/25 11:43:00;;;;;;;3.97;2.20;;;32.20;51.40;;;;;;5072279;28;20091;-82
2022/08/25 11:45:52;;;;;;;5.07;2.17;;;32.30;52.40;;;;;;5073516;28;20040;-83
2022/08/25 11:48:36;;;;;;;3.95;2.13;;;32.30;51.30;;;;;;5071958;28;20044;-82
2022/08/25 11:51:09;;;;;;;7.22;2.00;;;32.30;50.10;;;;;;5054904;28;20044;-83
2022/08/25 11:53:39;;;;;;;2.72;1.73;;;32.20;50.00;;;;;;5072349;28;20041;-82
2022/08/25 11:56:08;;;;;;;2.50;1.63;;;32.20;49.90;;;;;;5071892;28;20032;-82
2022/08/25 11:58:51;;;;;;;2.58;1.70;;;32.30;50.90;;;;;;5073374;28;20033;-82
2022/08/25 12:01:39;;;;;;;2.88;1.80;;;32.40;49.80;;;;;;5071773;28;20119;-82
2022/08/25 12:04:40;;;;;;;4.30;1.92;;;32.40;49.30;;;;;;5073997;28;20046;-82
2022/08/25 12:07:05;;;;;;;3.47;1.83;;;32.40;49.40;;;;;;5067893;28;20464;-82
2022/08/25 12:09:49;;;;;;;3.45;2.10;;;32.40;49.20;;;;;;5055018;28;20521;-79
2022/08/25 12:12:40;;;;;;;2.22;1.65;;;32.40;50.20;;;;;;5055944;28;20079;-81
2022/08/25 12:15:26;;;;;;;2.33;1.70;;;32.40;50.20;;;;;;5081554;28;20036;-78
2022/08/25 12:18:15;;;;;;;4.22;1.90;;;32.40;49.00;;;;;;5098194;28;20052;-79
2022/08/25 12:20:53;;;;;;;3.90;1.83;;;32.50;47.70;;;;;;5080430;28;20052;-79
2022/08/25 12:23:31;;;;;;;2.90;1.48;;;32.70;47.30;;;;;;5056856;28;20037;-81
2022/08/25 12:26:17;;;;;;;2.97;1.70;;;32.80;48.90;;;;;;5054700;28;20040;-82
2022/08/25 12:29:07;;;;;;;5.43;1.80;;;32.80;48.40;;;;;;5074722;28;20529;-81
2022/08/25 12:31:56;;;;;;;2.88;1.60;;;32.80;48.10;;;;;;5078065;28;20495;-83
2022/08/25 12:34:37;;;;;;;2.90;1.83;;;32.80;47.00;;;;;;5073332;28;20043;-83
2022/08/25 12:37:14;;;;;;;2.65;1.92;;;32.70;49.30;;;;;;5071142;28;20115;-83
2022/08/25 12:39:48;;;;;;;2.10;1.48;;;32.80;48.10;;;;;;5072212;28;20411;-83
2022/08/25 12:42:34;;;;;;;3.13;1.77;;;32.80;48.50;;;;;;5071044;28;20048;-82
2022/08/25 12:45:23;;;;;;;6.95;3.40;;;32.80;48.70;;;;;;5054800;28;20044;-83
2022/08/25 12:47:52;;;;;;;3.67;1.50;;;32.90;49.00;;;;;;5072132;28;20041;-82
2022/08/25 12:50:27;;;;;;;4.55;1.80;;;32.90;49.60;;;;;;5071714;28;20033;-83
2022/08/25 12:52:57;;;;;;;2.75;1.98;;;32.80;49.30;;;;;;5054832;28;20036;-82
2022/08/25 12:55:25;;;;;;;2.65;1.90;;;32.70;49.10;;;;;;5070815;28;20036;-81
2022/08/25 12:57:59;;;;;;;2.58;1.85;;;32.70;47.90;;;;;;5054047;28;20483;-81
2022/08/25 13:00:36;;;;;;;3.25;1.70;;;32.70;47.40;;;;;;5071858;28;20040;-80
2022/08/25 13:03:20;;;;;;;3.30;1.58;;;32.70;48.10;;;;;;5072581;28;20081;-84
2022/08/25 13:06:01;;;;;;;4.90;1.52;;;32.70;46.60;;;;;;5071742;28;20059;-84
2022/08/25 13:08:26;;;;;;;6.40;1.98;;;32.70;48.50;;;;;;5073219;28;20055;-82